Time;durP1;ratioP1;P1;durP2;ratioP2;P2;SDS_P1;SDS_P2;PMS_P1;PMS_P2;Temp;Humidity;BMP_temperature;BMP_pressure;BME280_temperature;BME280_humidity;BME280_pressure;Samples;Min_cycle;Max_cycle;Signal;HPM_P1;HPM_P2
2023/10/21 00:02:07;;;;;;;49.45;22.35;;;18.80;99.90;;;;;;5112052;28;20071;-70
2023/10/21 00:04:33;;;;;;;49.67;23.55;;;17.60;99.90;;;;;;5112355;28;20088;-70
2023/10/21 00:06:59;;;;;;;50.67;22.30;;;17.80;99.90;;;;;;5095255;28;20039;-70
2023/10/21 00:09:24;;;;;;;52.15;21.30;;;18.70;99.90;;;;;;5096700;28;20184;-70
2023/10/21 00:11:51;;;;;;;48.40;21.73;;;;;;;;;;5112593;28;20039;-70
2023/10/21 00:14:17;;;;;;;45.85;22.02;;;18.10;99.90;;;;;;5111629;28;20051;-71
2023/10/21 00:16:43;;;;;;;49.47;21.50;;;18.70;99.90;;;;;;5111904;28;20043;-70
2023/10/21 00:19:10;;;;;;;50.25;21.42;;;18.70;99.90;;;;;;5111961;28;20050;-70
2023/10/21 00:21:37;;;;;;;46.63;22.70;;;19.50;99.90;;;;;;5111697;28;20135;-70
2023/10/21 00:24:03;;;;;;;54.35;23.23;;;18.70;99.90;;;;;;5111757;28;20388;-70
2023/10/21 00:26:29;;;;;;;51.17;20.83;;;;;;;;;;5111710;28;20051;-70
2023/10/21 00:28:54;;;;;;;53.45;22.60;;;17.80;99.90;;;;;;5111618;28;20059;-70
2023/10/21 00:31:21;;;;;;;46.03;19.85;;;18.00;99.90;;;;;;5111380;28;20499;-70
2023/10/21 00:33:46;;;;;;;40.60;19.70;;;19.20;99.90;;;;;;5111402;28;20040;-70
2023/10/21 00:36:12;;;;;;;39.17;20.05;;;18.50;99.90;;;;;;5111548;28;20035;-71
2023/10/21 00:38:37;;;;;;;47.22;20.00;;;17.80;99.90;;;;;;5111401;28;20104;-70
2023/10/21 00:41:03;;;;;;;58.92;24.40;;;17.80;99.90;;;;;;5111611;28;20122;-70
2023/10/21 00:43:33;;;;;;;51.05;21.55;;;18.60;99.90;;;;;;5111149;28;20043;-70
2023/10/21 00:46:04;;;;;;;42.30;19.40;;;18.50;99.90;;;;;;5111295;28;20081;-70
2023/10/21 00:48:30;;;;;;;47.22;19.77;;;18.70;99.90;;;;;;5111384;28;20043;-70
2023/10/21 00:50:56;;;;;;;48.78;23.20;;;18.20;99.90;;;;;;5094084;28;20047;-70
2023/10/21 00:53:23;;;;;;;54.00;22.10;;;18.10;99.90;;;;;;5111012;28;20043;-70
2023/10/21 00:55:49;;;;;;;48.53;20.38;;;18.30;99.90;;;;;;5111322;28;20044;-70
2023/10/21 00:58:15;;;;;;;47.05;19.52;;;18.50;99.90;;;;;;5111288;28;20110;-70
2023/10/21 01:00:40;;;;;;;52.53;20.05;;;19.60;99.90;;;;;;5111109;28;20165;-70
2023/10/21 01:03:06;;;;;;;41.97;18.80;;;17.90;99.90;;;;;;5093993;28;20071;-70
2023/10/21 01:05:32;;;;;;;46.97;18.42;;;17.80;99.90;;;;;;5110972;28;20043;-70
2023/10/21 01:08:00;;;;;;;46.60;18.30;;;18.40;99.90;;;;;;5111004;28;20043;-70
2023/10/21 01:10:26;;;;;;;45.03;18.73;;;18.30;99.90;;;;;;5125085;22;20127;-73
2023/10/21 01:12:52;;;;;;;46.95;19.23;;;18.10;99.90;;;;;;5110299;28;20126;-74
2023/10/21 01:15:17;;;;;;;47.80;18.90;;;18.50;99.90;;;;;;5093960;28;20042;-73
2023/10/21 01:17:50;;;;;;;36.30;17.33;;;18.00;99.90;;;;;;5093940;28;20400;-74
2023/10/21 01:20:17;;;;;;;31.30;16.00;;;18.10;99.90;;;;;;5093727;28;20151;-73
2023/10/21 01:22:43;;;;;;;28.95;14.65;;;18.00;99.90;;;;;;5110656;28;20043;-74
2023/10/21 01:25:09;;;;;;;41.58;18.88;;;18.00;99.90;;;;;;5110786;28;20039;-73
2023/10/21 01:27:35;;;;;;;44.47;18.33;;;18.00;99.90;;;;;;5094007;28;20035;-73
2023/10/21 01:30:00;;;;;;;38.35;18.15;;;18.40;99.90;;;;;;5093611;28;20043;-73
2023/10/21 01:32:26;;;;;;;35.20;15.60;;;18.90;99.90;;;;;;5110487;28;20036;-74
2023/10/21 01:34:51;;;;;;;33.17;16.20;;;18.20;99.90;;;;;;5097020;28;20080;-73
2023/10/21 01:37:17;;;;;;;32.53;15.73;;;17.90;99.90;;;;;;5115148;28;20102;-73
2023/10/21 01:39:44;;;;;;;36.08;16.55;;;18.80;99.90;;;;;;5114765;28;20046;-73
2023/10/21 01:42:09;;;;;;;39.55;17.48;;;18.40;99.90;;;;;;5097914;28;20046;-73
2023/10/21 01:44:35;;;;;;;35.55;17.23;;;18.70;99.90;;;;;;5114731;28;20040;-73
2023/10/21 01:47:01;;;;;;;29.73;15.77;;;18.20;99.90;;;;;;5114705;28;20522;-74
2023/10/21 01:49:26;;;;;;;33.72;15.60;;;18.30;99.90;;;;;;5097637;28;20459;-73
2023/10/21 01:51:52;;;;;;;36.55;15.95;;;17.80;99.90;;;;;;5114545;28;20054;-73
2023/10/21 01:54:17;;;;;;;32.90;14.75;;;18.50;99.90;;;;;;5114342;28;20040;-73
2023/10/21 01:56:43;;;;;;;36.55;15.43;;;17.90;99.90;;;;;;5097612;28;20066;-73
2023/10/21 01:59:08;;;;;;;33.25;15.95;;;18.10;99.90;;;;;;5114634;28;20060;-74
2023/10/21 02:01:34;;;;;;;28.13;14.38;;;18.50;99.90;;;;;;5097902;28;20081;-73
2023/10/21 02:04:00;;;;;;;33.20;15.48;;;17.80;99.90;;;;;;5114500;28;20078;-73
2023/10/21 02:06:26;;;;;;;30.92;14.15;;;;;;;;;;5114710;28;20046;-73
2023/10/21 02:08:53;;;;;;;25.95;13.07;;;17.80;99.90;;;;;;5114631;28;20065;-73
2023/10/21 02:11:24;;;;;;;35.15;14.90;;;17.70;99.90;;;;;;5114333;28;20411;-73
2023/10/21 02:13:49;;;;;;;32.28;14.98;;;17.60;99.90;;;;;;5114087;28;20040;-74
2023/10/21 02:16:15;;;;;;;34.65;14.88;;;17.50;99.90;;;;;;5097186;28;20044;-73
2023/10/21 02:18:41;;;;;;;24.77;13.25;;;17.70;99.90;;;;;;5115404;28;20027;-73
2023/10/21 02:21:07;;;;;;;28.67;13.30;;;18.60;99.90;;;;;;5114274;28;20035;-73
2023/10/21 02:23:33;;;;;;;32.67;13.85;;;18.10;99.90;;;;;;5096897;28;20043;-73
2023/10/21 02:26:04;;;;;;;28.95;13.32;;;18.50;99.90;;;;;;5114199;28;20035;-73
2023/10/21 02:28:30;;;;;;;23.80;12.77;;;;;;;;;;5114011;28;20118;-73
2023/10/21 02:30:57;;;;;;;31.60;13.30;;;18.40;99.90;;;;;;5113931;28;20417;-73
2023/10/21 02:33:23;;;;;;;24.00;11.90;;;18.50;99.90;;;;;;5113851;28;20112;-73
2023/10/21 02:35:53;;;;;;;35.55;14.23;;;17.50;99.90;;;;;;5113831;28;20093;-73
2023/10/21 02:38:19;;;;;;;26.55;12.60;;;18.40;99.90;;;;;;5096820;28;20028;-73
2023/10/21 02:40:44;;;;;;;24.80;12.45;;;17.70;99.90;;;;;;5113599;28;20031;-73
2023/10/21 02:43:11;;;;;;;22.75;12.35;;;18.00;99.90;;;;;;5113728;28;20044;-74
2023/10/21 02:45:36;;;;;;;21.10;11.50;;;18.50;99.90;;;;;;5095212;28;20040;-74
2023/10/21 02:48:02;;;;;;;26.00;12.27;;;;;;;;;;5113622;28;20036;-73
2023/10/21 02:50:28;;;;;;;23.95;11.55;;;18.60;99.90;;;;;;5113438;28;20040;-73
2023/10/21 02:52:54;;;;;;;26.15;12.38;;;17.40;99.90;;;;;;5113297;28;20183;-73
2023/10/21 02:55:19;;;;;;;20.17;11.15;;;;;;;;;;5096552;28;20050;-73
2023/10/21 02:57:45;;;;;;;21.25;10.68;;;17.50;99.90;;;;;;5113606;28;20071;-74
2023/10/21 03:00:18;;;;;;;23.15;11.68;;;18.50;99.90;;;;;;5096181;28;20031;-74
2023/10/21 03:02:45;;;;;;;23.55;12.05;;;18.20;99.90;;;;;;5113270;28;20032;-74
2023/10/21 03:05:11;;;;;;;24.35;11.77;;;18.30;99.90;;;;;;5113344;28;20135;-74
2023/10/21 03:07:37;;;;;;;23.45;11.50;;;18.00;99.90;;;;;;5113303;28;20051;-74
2023/10/21 03:10:03;;;;;;;22.02;11.85;;;;;;;;;;5112881;28;20031;-74
2023/10/21 03:12:29;;;;;;;20.75;10.35;;;18.40;99.90;;;;;;5112897;28;20038;-73
2023/10/21 03:14:55;;;;;;;21.55;11.60;;;18.00;99.90;;;;;;5112947;28;20411;-73
2023/10/21 03:17:21;;;;;;;20.67;10.30;;;18.40;99.90;;;;;;5113011;28;20032;-73
2023/10/21 03:19:47;;;;;;;22.40;10.75;;;;;;;;;;5112895;28;20040;-73
2023/10/21 03:22:13;;;;;;;21.45;10.50;;;;;;;;;;5112992;28;20058;-73
2023/10/21 03:24:39;;;;;;;23.52;10.43;;;;;;;;;;5112843;28;20036;-74
2023/10/21 03:27:06;;;;;;;21.45;11.23;;;18.20;99.90;;;;;;5112856;28;20054;-74
2023/10/21 03:29:32;;;;;;;22.23;10.18;;;;;;;;;;5112625;28;20502;-73
2023/10/21 03:31:57;;;;;;;26.75;10.43;;;18.30;99.90;;;;;;5112591;28;20088;-73
2023/10/21 03:34:23;;;;;;;20.90;10.90;;;18.20;99.90;;;;;;5112646;28;20087;-73
2023/10/21 03:36:48;;;;;;;20.42;10.77;;;17.50;99.90;;;;;;5112776;28;20118;-73
2023/10/21 03:39:15;;;;;;;23.80;11.00;;;;;;;;;;5112575;28;20035;-74
2023/10/21 03:41:40;;;;;;;26.92;12.45;;;17.70;99.90;;;;;;5112330;28;20083;-74
2023/10/21 03:44:06;;;;;;;25.70;11.98;;;;;;;;;;5112284;28;20079;-74
2023/10/21 03:46:32;;;;;;;28.15;12.18;;;18.20;99.90;;;;;;5112492;28;20303;-73
2023/10/21 03:48:57;;;;;;;26.35;13.18;;;18.00;99.90;;;;;;5095406;28;20134;-74
2023/10/21 03:51:24;;;;;;;26.33;13.60;;;;;;;;;;5112240;28;20043;-73
2023/10/21 03:53:49;;;;;;;25.13;13.65;;;17.70;99.90;;;;;;5095140;28;20051;-74
2023/10/21 03:56:15;;;;;;;22.75;11.85;;;17.40;99.90;;;;;;5111778;28;20028;-74
2023/10/21 03:58:41;;;;;;;32.75;14.20;;;17.40;99.90;;;;;;5112340;28;20140;-74
2023/10/21 04:01:07;;;;;;;34.65;15.57;;;17.50;99.90;;;;;;5112148;28;20043;-74
2023/10/21 04:03:33;;;;;;;26.23;14.95;;;17.50;99.90;;;;;;5112091;28;20038;-74
2023/10/21 04:05:59;;;;;;;29.17;13.57;;;17.30;99.90;;;;;;5112548;28;20071;-74
2023/10/21 04:08:26;;;;;;;33.40;16.13;;;18.00;99.90;;;;;;5112110;28;20075;-73
2023/10/21 04:10:52;;;;;;;33.60;15.95;;;17.70;99.90;;;;;;5095233;28;20040;-73
2023/10/21 04:13:18;;;;;;;38.83;16.60;;;17.30;99.90;;;;;;5111782;28;20036;-74
2023/10/21 04:15:45;;;;;;;34.25;15.57;;;;;;;;;;5111969;28;20040;-74
2023/10/21 04:18:11;;;;;;;47.88;18.95;;;;;;;;;;5112135;28;20053;-73
2023/10/21 04:20:37;;;;;;;43.25;17.92;;;17.40;99.90;;;;;;5111792;28;20039;-73
2023/10/21 04:23:03;;;;;;;36.40;17.50;;;18.10;99.90;;;;;;5111742;28;20043;-73
2023/10/21 04:25:29;;;;;;;34.47;16.77;;;17.80;99.90;;;;;;5112103;28;20043;-73
2023/10/21 04:27:56;;;;;;;33.60;15.90;;;17.40;99.90;;;;;;5111786;28;20502;-73
2023/10/21 04:30:25;;;;;;;46.10;19.45;;;;;;;;;;5111596;28;20097;-73
2023/10/21 04:32:51;;;;;;;38.65;19.05;;;;;;;;;;5094294;28;20063;-73
2023/10/21 04:35:17;;;;;;;44.05;18.75;;;18.10;99.90;;;;;;5111764;28;20054;-73
2023/10/21 04:37:43;;;;;;;38.90;18.40;;;17.10;99.90;;;;;;5111436;28;20031;-73
2023/10/21 04:40:09;;;;;;;48.72;21.38;;;17.60;99.90;;;;;;5111695;28;20574;-73
2023/10/21 04:42:36;;;;;;;70.28;25.45;;;17.30;99.90;;;;;;5094384;28;20043;-73
2023/10/21 04:45:02;;;;;;;41.03;20.52;;;17.20;99.90;;;;;;5111389;28;20035;-73
2023/10/21 04:47:28;;;;;;;56.33;22.15;;;17.20;99.90;;;;;;5111345;28;20043;-73
2023/10/21 04:49:54;;;;;;;44.15;20.15;;;;;;;;;;5111511;28;20032;-73
2023/10/21 04:52:22;;;;;;;47.40;23.38;;;17.80;99.90;;;;;;5110984;28;20048;-73
2023/10/21 04:54:48;;;;;;;54.05;23.23;;;;;;;;;;5094028;28;20048;-73
2023/10/21 04:57:14;;;;;;;57.25;23.52;;;17.20;99.90;;;;;;5111085;28;20039;-73
2023/10/21 04:59:40;;;;;;;43.55;21.73;;;;;;;;;;5110956;28;20062;-74
2023/10/21 05:02:07;;;;;;;45.35;22.55;;;;;;;;;;5111103;28;20490;-73
2023/10/21 05:04:33;;;;;;;48.10;21.77;;;17.90;99.90;;;;;;5094106;28;20047;-73
2023/10/21 05:06:59;;;;;;;63.30;26.48;;;;;;;;;;5111002;28;20514;-73
2023/10/21 05:09:26;;;;;;;52.92;22.73;;;17.60;99.90;;;;;;5110015;28;20134;-73
2023/10/21 05:11:51;;;;;;;43.08;22.15;;;17.20;99.90;;;;;;5110800;28;20443;-73
2023/10/21 05:14:17;;;;;;;44.67;20.80;;;;;;;;;;5110650;28;20126;-74
2023/10/21 05:16:43;;;;;;;45.70;21.63;;;17.80;99.90;;;;;;5110833;28;20145;-73
2023/10/21 05:19:09;;;;;;;53.50;24.90;;;;;;;;;;5111102;28;20150;-73
2023/10/21 05:21:35;;;;;;;51.58;22.58;;;;;;;;;;5093761;28;20032;-74
2023/10/21 05:24:01;;;;;;;62.85;25.52;;;;;;;;;;5110696;28;20071;-73
2023/10/21 05:26:28;;;;;;;39.95;19.35;;;17.20;99.90;;;;;;5110888;28;20044;-73
2023/10/21 05:28:54;;;;;;;48.30;24.15;;;18.30;99.90;;;;;;5094372;28;20040;-73
2023/10/21 05:31:19;;;;;;;48.08;23.35;;;17.10;99.90;;;;;;5110746;28;20112;-73
2023/10/21 05:33:45;;;;;;;59.08;24.65;;;;;;;;;;5110633;28;20048;-74
2023/10/21 05:36:11;;;;;;;45.70;24.15;;;;;;;;;;5094156;28;20061;-74
2023/10/21 05:38:37;;;;;;;45.10;22.08;;;17.20;99.90;;;;;;5110963;28;20047;-73
2023/10/21 05:41:03;;;;;;;47.60;23.52;;;17.80;99.90;;;;;;5110611;28;20036;-73
2023/10/21 05:43:28;;;;;;;53.17;22.55;;;18.10;99.90;;;;;;5110538;28;20044;-73
2023/10/21 05:45:54;;;;;;;48.22;21.45;;;17.50;99.90;;;;;;5093632;28;20039;-74
2023/10/21 05:48:20;;;;;;;51.08;22.60;;;;;;;;;;5110652;28;20047;-73
2023/10/21 05:50:47;;;;;;;45.58;21.17;;;;;;;;;;5110893;28;20040;-73
2023/10/21 05:53:13;;;;;;;41.13;21.38;;;18.10;99.90;;;;;;5109941;28;20040;-73
2023/10/21 05:55:42;;;;;;;49.17;23.65;;;17.60;99.90;;;;;;5110531;28;20040;-74
2023/10/21 05:58:11;;;;;;;40.58;20.77;;;17.60;99.90;;;;;;5110630;28;20646;-74
2023/10/21 06:00:37;;;;;;;43.17;22.13;;;18.10;99.90;;;;;;5110346;28;20043;-74
2023/10/21 06:03:05;;;;;;;42.38;21.48;;;16.50;99.90;;;;;;5093281;28;20035;-73
2023/10/21 06:05:31;;;;;;;39.22;21.63;;;15.90;99.90;;;;;;5110392;28;20047;-73
2023/10/21 06:07:57;;;;;;;37.20;20.75;;;;;;;;;;5110390;28;20039;-73
2023/10/21 06:10:23;;;;;;;55.88;22.80;;;;;;;;;;5110162;28;20047;-74
2023/10/21 06:12:49;;;;;;;43.33;22.67;;;;;;;;;;5110065;28;20051;-74
2023/10/21 06:15:15;;;;;;;45.35;24.50;;;;;;;;;;5110277;28;20039;-73
2023/10/21 06:17:41;;;;;;;45.63;23.58;;;;;;;;;;5093300;28;20081;-73
2023/10/21 06:20:08;;;;;;;45.97;21.40;;;;;;;;;;5111971;28;20046;-73
2023/10/21 06:22:34;;;;;;;47.22;22.83;;;15.10;99.90;;;;;;5114101;28;20082;-74
2023/10/21 06:25:00;;;;;;;44.33;22.90;;;16.00;99.90;;;;;;5097025;28;20075;-73
2023/10/21 06:27:26;;;;;;;41.40;22.17;;;;;;;;;;5113970;28;20039;-73
2023/10/21 06:29:52;;;;;;;38.10;20.77;;;;;;;;;;5113896;28;20043;-73
2023/10/21 06:32:18;;;;;;;43.45;20.42;;;;;;;;;;5096616;28;20043;-73
2023/10/21 06:34:44;;;;;;;43.40;20.25;;;;;;;;;;5114025;28;20052;-73
2023/10/21 06:37:10;;;;;;;47.22;23.42;;;;;;;;;;5096938;28;20095;-74
2023/10/21 06:39:36;;;;;;;43.55;21.08;;;;;;;;;;5096928;28;20506;-74
2023/10/21 06:42:03;;;;;;;32.97;18.48;;;;;;;;;;5096655;28;20031;-73
2023/10/21 06:44:29;;;;;;;37.20;20.27;;;15.60;99.90;;;;;;5113700;28;20043;-73
2023/10/21 06:46:55;;;;;;;34.78;19.30;;;;;;;;;;5096638;28;20452;-73
2023/10/21 06:49:21;;;;;;;39.20;21.30;;;;;;;;;;5113561;28;20040;-73
2023/10/21 06:51:49;;;;;;;37.28;19.60;;;16.30;99.90;;;;;;5096748;28;20388;-73
2023/10/21 06:54:17;;;;;;;38.83;20.60;;;;;;;;;;5096067;28;20449;-73
2023/10/21 06:56:44;;;;;;;45.17;21.20;;;15.80;99.90;;;;;;5096456;28;20118;-73
2023/10/21 06:59:10;;;;;;;37.90;19.38;;;15.40;99.90;;;;;;5113060;28;20047;-73
2023/10/21 07:01:35;;;;;;;35.25;19.30;;;16.60;99.90;;;;;;5113169;28;20047;-73
2023/10/21 07:04:01;;;;;;;36.25;19.30;;;;;;;;;;5096168;28;20487;-73
2023/10/21 07:06:27;;;;;;;41.65;19.25;;;;;;;;;;5113314;28;20043;-73
2023/10/21 07:08:53;;;;;;;37.45;20.50;;;16.70;99.90;;;;;;5113213;28;20109;-73
2023/10/21 07:11:18;;;;;;;36.42;19.80;;;16.60;99.90;;;;;;5113790;28;20031;-73
2023/10/21 07:13:46;;;;;;;33.58;18.55;;;;;;;;;;5112704;28;20560;-73
2023/10/21 07:16:12;;;;;;;32.20;17.17;;;;;;;;;;5113006;28;20051;-73
2023/10/21 07:18:38;;;;;;;39.38;19.95;;;;;;;;;;5113021;28;20032;-73
2023/10/21 07:21:04;;;;;;;43.15;22.10;;;;;;;;;;5113059;28;20039;-73
2023/10/21 07:23:31;;;;;;;41.65;19.70;;;16.30;99.90;;;;;;5112712;28;20050;-73
2023/10/21 07:25:57;;;;;;;41.67;20.00;;;16.80;99.90;;;;;;5113056;28;20055;-73
2023/10/21 07:28:22;;;;;;;37.83;18.88;;;16.50;99.90;;;;;;5112802;28;20414;-73
2023/10/21 07:30:48;;;;;;;38.38;18.80;;;16.20;99.90;;;;;;5112029;28;20036;-73
2023/10/21 07:33:14;;;;;;;44.13;19.77;;;;;;;;;;5112598;28;20043;-73
2023/10/21 07:35:40;;;;;;;35.35;19.42;;;16.70;99.90;;;;;;5112658;28;20047;-73
2023/10/21 07:38:05;;;;;;;38.38;19.00;;;17.20;99.90;;;;;;5112634;28;20406;-73
2023/10/21 07:40:32;;;;;;;37.35;19.95;;;;;;;;;;5112410;28;20067;-73
2023/10/21 07:42:58;;;;;;;34.67;18.85;;;17.20;99.90;;;;;;5112566;28;20036;-73
2023/10/21 07:45:24;;;;;;;40.72;19.27;;;16.60;99.90;;;;;;5112853;28;20126;-73
2023/10/21 07:47:50;;;;;;;38.63;18.40;;;16.40;99.90;;;;;;5112767;28;20594;-73
2023/10/21 07:50:17;;;;;;;40.08;18.90;;;16.20;99.90;;;;;;5112408;28;20052;-73
2023/10/21 07:52:43;;;;;;;36.22;19.05;;;17.20;99.90;;;;;;5112175;28;20051;-73
2023/10/21 07:55:12;;;;;;;36.95;18.27;;;17.00;99.90;;;;;;5112744;28;20462;-73
2023/10/21 07:57:39;;;;;;;40.70;18.58;;;16.20;99.90;;;;;;5095519;28;20040;-73
2023/10/21 08:00:06;;;;;;;45.10;21.05;;;16.60;99.90;;;;;;5112050;28;20039;-73
2023/10/21 08:02:34;;;;;;;36.67;19.13;;;17.10;99.90;;;;;;5095145;28;20032;-74
2023/10/21 08:05:00;;;;;;;37.60;18.60;;;;;;;;;;5112347;28;20410;-74
2023/10/21 08:07:26;;;;;;;33.28;18.42;;;;;;;;;;5112449;28;20376;-74
2023/10/21 08:09:52;;;;;;;36.50;19.00;;;16.70;99.90;;;;;;5111775;28;20042;-74
2023/10/21 08:12:18;;;;;;;41.70;21.02;;;16.80;99.90;;;;;;5112178;28;20402;-74
2023/10/21 08:14:43;;;;;;;35.88;19.08;;;17.80;99.90;;;;;;5111829;28;20514;-74
2023/10/21 08:17:09;;;;;;;37.83;19.65;;;18.10;99.90;;;;;;5111858;28;20119;-74
2023/10/21 08:19:35;;;;;;;33.25;18.38;;;;;;;;;;5111710;28;20039;-74
2023/10/21 08:22:01;;;;;;;35.90;19.83;;;;;;;;;;5111547;28;20055;-73
2023/10/21 08:24:27;;;;;;;29.58;17.20;;;16.90;99.90;;;;;;5094769;28;20048;-73
2023/10/21 08:26:53;;;;;;;30.98;18.75;;;18.40;99.90;;;;;;5111687;28;20039;-73
2023/10/21 08:29:20;;;;;;;35.10;19.98;;;;;;;;;;5111828;28;20040;-74
2023/10/21 08:31:47;;;;;;;30.35;18.10;;;18.40;99.90;;;;;;5094771;28;20043;-74
2023/10/21 08:34:15;;;;;;;34.67;17.48;;;17.60;99.90;;;;;;5111261;28;20039;-74
2023/10/21 08:36:41;;;;;;;30.80;17.40;;;17.40;99.90;;;;;;5111633;28;20039;-73
2023/10/21 08:39:07;;;;;;;27.33;15.55;;;17.50;99.90;;;;;;5094464;28;20039;-74
2023/10/21 08:41:36;;;;;;;31.98;17.10;;;18.40;99.90;;;;;;5094767;28;20127;-73
2023/10/21 08:44:02;;;;;;;22.75;14.70;;;;;;;;;;5111220;28;20043;-73
2023/10/21 08:46:30;;;;;;;23.02;13.95;;;19.00;99.90;;;;;;5111337;28;20047;-74
2023/10/21 08:48:57;;;;;;;28.02;14.38;;;18.50;99.90;;;;;;5111163;28;20050;-74
2023/10/21 08:51:25;;;;;;;22.63;13.57;;;17.90;99.90;;;;;;5111208;28;20040;-74
2023/10/21 08:53:53;;;;;;;21.33;12.77;;;18.30;99.90;;;;;;5094016;28;20039;-73
2023/10/21 08:56:19;;;;;;;22.00;13.30;;;18.10;99.90;;;;;;5112605;28;20044;-74
2023/10/21 08:58:46;;;;;;;27.77;13.10;;;;;;;;;;5094256;28;20475;-74
2023/10/21 09:01:14;;;;;;;20.98;12.02;;;19.00;99.90;;;;;;5094049;28;20491;-74
2023/10/21 09:03:41;;;;;;;20.70;12.35;;;;;;;;;;5111213;28;20316;-74
2023/10/21 09:06:11;;;;;;;19.98;12.38;;;17.80;99.90;;;;;;5111263;28;20039;-74
2023/10/21 09:08:40;;;;;;;18.05;11.95;;;18.10;99.90;;;;;;5111181;28;20044;-74
2023/10/21 09:11:07;;;;;;;18.90;10.73;;;18.60;99.90;;;;;;5093837;28;20066;-74
2023/10/21 09:13:36;;;;;;;21.08;10.50;;;18.10;99.90;;;;;;5110648;28;20172;-73
2023/10/21 09:16:19;;;;;;;21.80;11.50;;;18.00;99.90;;;;;;5111178;28;20058;-74
2023/10/21 09:19:06;;;;;;;18.92;10.55;;;18.70;99.90;;;;;;5093942;28;20036;-74
2023/10/21 09:21:38;;;;;;;16.75;10.38;;;19.00;99.90;;;;;;5111234;28;20127;-74
2023/10/21 09:24:10;;;;;;;22.23;11.48;;;18.70;99.90;;;;;;5093606;28;20036;-74
2023/10/21 09:26:47;;;;;;;20.23;10.63;;;18.30;99.90;;;;;;5110913;28;20043;-74
2023/10/21 09:29:20;;;;;;;20.83;10.73;;;19.30;99.90;;;;;;5110743;28;20529;-74
2023/10/21 09:31:51;;;;;;;18.35;10.73;;;18.20;99.90;;;;;;5110735;28;20039;-74
2023/10/21 09:34:27;;;;;;;20.63;10.18;;;19.40;99.90;;;;;;5110492;28;20558;-74
2023/10/21 09:36:57;;;;;;;14.88;9.73;;;19.20;99.90;;;;;;5110735;28;20082;-74
2023/10/21 09:39:24;;;;;;;13.85;9.18;;;19.30;99.90;;;;;;5110696;28;20050;-74
2023/10/21 09:41:50;;;;;;;12.40;8.27;;;18.50;99.90;;;;;;5110705;28;20047;-74
2023/10/21 09:44:16;;;;;;;13.85;7.97;;;19.50;99.90;;;;;;5110452;28;20499;-74
2023/10/21 09:46:47;;;;;;;11.93;7.63;;;18.40;99.90;;;;;;5110578;28;20184;-74
2023/10/21 09:49:13;;;;;;;12.55;7.78;;;19.20;99.90;;;;;;5093499;28;20562;-74
2023/10/21 09:51:52;;;;;;;13.27;7.57;;;19.20;99.90;;;;;;5112016;28;20046;-74
2023/10/21 09:54:26;;;;;;;14.02;6.80;;;18.40;99.90;;;;;;5111087;28;20036;-74
2023/10/21 09:56:53;;;;;;;12.68;6.82;;;18.20;99.90;;;;;;5114635;28;20070;-73
2023/10/21 09:59:21;;;;;;;10.38;6.85;;;18.60;99.90;;;;;;5114730;28;20372;-74
2023/10/21 10:01:47;;;;;;;10.25;6.85;;;;;;;;;;5114674;28;20035;-73
2023/10/21 10:04:14;;;;;;;10.75;6.75;;;19.70;99.90;;;;;;5114524;28;20071;-74
2023/10/21 10:06:40;;;;;;;18.42;9.43;;;;;;;;;;5097726;28;20088;-74
2023/10/21 10:09:06;;;;;;;10.90;5.95;;;18.60;99.90;;;;;;5114382;28;20039;-73
2023/10/21 10:11:34;;;;;;;11.20;6.43;;;18.90;99.90;;;;;;5114292;28;20406;-73
2023/10/21 10:14:02;;;;;;;10.30;5.72;;;18.70;99.90;;;;;;5113830;28;20040;-73
2023/10/21 10:16:29;;;;;;;7.03;4.70;;;;;;;;;;5097160;28;20039;-73
2023/10/21 10:18:57;;;;;;;8.20;4.78;;;18.90;99.90;;;;;;5097565;28;20445;-73
2023/10/21 10:21:23;;;;;;;7.80;4.63;;;;;;;;;;5114037;28;20035;-73
2023/10/21 10:23:57;;;;;;;7.55;4.55;;;18.70;99.90;;;;;;5113983;28;20036;-73
2023/10/21 10:26:37;;;;;;;6.97;4.70;;;18.20;99.90;;;;;;5114055;28;20047;-73
2023/10/21 10:29:25;;;;;;;5.45;4.07;;;18.30;99.90;;;;;;5113982;28;20122;-73
2023/10/21 10:32:14;;;;;;;5.45;4.43;;;19.20;99.90;;;;;;5113942;28;20046;-73
2023/10/21 10:34:53;;;;;;;7.95;4.40;;;18.40;99.90;;;;;;5113884;28;20087;-73
2023/10/21 10:37:51;;;;;;;9.20;4.57;;;18.70;99.90;;;;;;5096918;28;20035;-73
2023/10/21 10:40:18;;;;;;;8.93;4.35;;;18.30;99.90;;;;;;5113580;28;20048;-73
2023/10/21 10:42:45;;;;;;;7.32;4.50;;;19.70;99.90;;;;;;5113564;28;20042;-73
2023/10/21 10:45:10;;;;;;;6.90;4.20;;;19.70;99.90;;;;;;5113573;28;20046;-73
2023/10/21 10:47:40;;;;;;;7.80;4.70;;;19.60;99.90;;;;;;5096877;28;20035;-74
2023/10/21 10:50:12;;;;;;;6.25;4.70;;;19.20;99.90;;;;;;5113730;28;20044;-74
2023/10/21 10:52:38;;;;;;;7.38;4.35;;;19.40;99.90;;;;;;5114739;28;20096;-74
2023/10/21 10:55:08;;;;;;;10.65;5.10;;;19.50;99.90;;;;;;5113458;28;20044;-74
2023/10/21 10:57:34;;;;;;;5.90;4.57;;;;;;;;;;5113497;28;20506;-74
2023/10/21 11:00:00;;;;;;;5.80;3.40;;;;;;;;;;5096176;28;20059;-74
2023/10/21 11:02:28;;;;;;;4.95;2.95;;;;;;;;;;5096251;28;20043;-74
2023/10/21 11:04:59;;;;;;;6.57;3.17;;;18.80;99.90;;;;;;5096423;28;20046;-74
2023/10/21 11:07:30;;;;;;;5.32;3.25;;;18.80;99.90;;;;;;5112107;28;20043;-73
2023/10/21 11:10:00;;;;;;;6.88;3.60;;;19.90;99.90;;;;;;5096053;28;20495;-73
2023/10/21 11:12:27;;;;;;;6.25;2.78;;;19.40;99.90;;;;;;5112998;28;20039;-74
2023/10/21 11:14:53;;;;;;;6.07;3.05;;;;;;;;;;5113062;28;20169;-73
2023/10/21 11:17:19;;;;;;;6.00;2.70;;;18.70;99.90;;;;;;5113136;28;20036;-74
2023/10/21 11:19:45;;;;;;;7.40;3.33;;;19.70;99.90;;;;;;5112998;28;20084;-73
2023/10/21 11:22:26;;;;;;;6.82;3.05;;;19.40;99.90;;;;;;5112803;28;20122;-73
2023/10/21 11:24:55;;;;;;;3.38;2.42;;;19.90;99.90;;;;;;5112927;28;20055;-74
2023/10/21 11:27:22;;;;;;;5.20;2.30;;;19.10;99.90;;;;;;5112833;28;20525;-74
2023/10/21 11:29:51;;;;;;;4.25;2.85;;;18.50;99.90;;;;;;5112969;28;20039;-74
2023/10/21 11:32:26;;;;;;;2.83;1.92;;;18.50;99.90;;;;;;5112802;28;20232;-74
2023/10/21 11:34:51;;;;;;;2.70;1.77;;;19.80;99.90;;;;;;5112698;28;20387;-74
2023/10/21 11:37:18;;;;;;;3.63;1.92;;;19.80;99.90;;;;;;5112659;28;20046;-74
2023/10/21 11:39:44;;;;;;;3.15;1.33;;;;;;;;;;5112464;28;20050;-74
2023/10/21 11:42:17;;;;;;;5.18;1.48;;;18.90;99.90;;;;;;5095396;28;20144;-73
2023/10/21 11:44:57;;;;;;;2.42;1.27;;;20.20;99.90;;;;;;5095517;28;20075;-74
2023/10/21 11:47:25;;;;;;;1.95;1.70;;;19.70;99.90;;;;;;5112497;28;20039;-73
2023/10/21 11:49:52;;;;;;;1.02;0.85;;;18.70;99.90;;;;;;5112278;28;20047;-74
2023/10/21 11:52:18;;;;;;;1.98;1.17;;;18.60;99.90;;;;;;5112308;28;20119;-73
2023/10/21 11:54:46;;;;;;;3.47;1.38;;;19.90;99.90;;;;;;5113668;28;20120;-73
2023/10/21 11:57:41;;;;;;;5.13;1.77;;;19.60;99.90;;;;;;5112212;28;20043;-73
2023/10/21 12:11:21;;;;;;;2.15;1.17;;;20.30;99.90;;;;;;5112006;28;20050;-73
2023/10/21 12:27:41;;;;;;;1.70;1.05;;;19.40;99.90;;;;;;5111710;28;20046;-72
2023/10/21 12:42:50;;;;;;;3.42;1.52;;;;;;;;;;5111470;28;20518;-72
2023/10/21 12:45:19;;;;;;;4.07;1.45;;;20.20;99.90;;;;;;5111439;28;20044;-72
2023/10/21 12:47:48;;;;;;;2.45;1.25;;;19.70;99.90;;;;;;5111386;28;20071;-72
2023/10/21 12:50:14;;;;;;;5.50;1.63;;;20.10;99.90;;;;;;5111316;28;20525;-72
2023/10/21 12:52:40;;;;;;;4.57;1.10;;;20.10;99.90;;;;;;5110986;28;20051;-72
2023/10/21 12:55:10;;;;;;;2.38;1.20;;;20.20;99.90;;;;;;5111093;28;20048;-72
2023/10/21 12:57:39;;;;;;;3.33;1.00;;;19.60;99.90;;;;;;5111134;28;20039;-72
2023/10/21 13:00:05;;;;;;;2.70;1.10;;;19.80;99.90;;;;;;5094372;28;20039;-72
2023/10/21 13:02:35;;;;;;;2.90;1.00;;;19.50;99.90;;;;;;5110907;28;20516;-72
2023/10/21 13:05:04;;;;;;;4.43;1.00;;;19.40;99.90;;;;;;5110965;28;20043;-72
2023/10/21 13:07:33;;;;;;;2.80;1.00;;;;;;;;;;5094063;28;20051;-72
2023/10/21 13:12:25;;;;;;;3.13;1.15;;;;;;;;;;5107305;22;20052;-70
2023/10/21 13:14:52;;;;;;;1.48;0.90;;;19.90;99.90;;;;;;5091896;28;20487;-71
2023/10/21 13:17:18;;;;;;;2.60;1.20;;;20.20;99.90;;;;;;5073830;28;20035;-70
2023/10/21 13:19:44;;;;;;;2.75;0.98;;;;;;;;;;5073624;28;20522;-71
2023/10/21 13:22:10;;;;;;;4.75;1.27;;;;;;;;;;5073538;28;20082;-71
2023/10/21 13:24:37;;;;;;;1.75;0.80;;;;;;;;;;5073781;28;20087;-71
2023/10/21 13:27:05;;;;;;;4.72;1.23;;;20.90;99.90;;;;;;5073721;28;20047;-71
2023/10/21 13:29:32;;;;;;;3.28;0.90;;;19.70;99.90;;;;;;5072961;28;20032;-70
2023/10/21 13:31:59;;;;;;;2.67;0.90;;;19.70;99.90;;;;;;5073443;28;20036;-69
2023/10/21 13:34:25;;;;;;;7.00;1.15;;;19.70;99.90;;;;;;5073544;28;20051;-71
2023/10/21 13:36:51;;;;;;;4.28;1.00;;;;;;;;;;5073988;28;20032;-71
2023/10/21 13:39:18;;;;;;;3.95;0.95;;;20.20;99.90;;;;;;5073477;28;20036;-70